createdAt,value
2023-04-19T00:01:39.914Z,6.177
2023-04-19T00:05:42.793Z,3.088
2023-04-19T00:07:44.361Z,4.773
2023-04-19T00:11:46.964Z,0.702
2023-04-19T00:15:49.764Z,3.088
2023-04-19T00:17:51.469Z,2.948
2023-04-19T00:21:54.423Z,0.702
2023-04-19T00:27:59.492Z,0.14
2023-04-19T00:34:03.616Z,3.51
2023-04-19T00:38:07.400Z,1.544
2023-04-19T00:44:11.864Z,1.544
2023-04-19T00:48:14.587Z,1.825
2023-04-19T00:50:16.341Z,0.28
2023-04-19T00:54:20.164Z,0
2023-04-19T00:58:22.943Z,0
2023-04-19T01:00:24.370Z,2.667
2023-04-19T01:04:27.026Z,1.404
2023-04-19T01:10:31.705Z,2.246
2023-04-19T01:16:35.510Z,0.14
2023-04-19T01:20:39.001Z,1.123
2023-04-19T01:26:43.148Z,0.421
2023-04-19T01:30:45.629Z,1.684
2023-04-19T01:32:47.287Z,1.123
2023-04-19T01:36:50.320Z,1.544
2023-04-19T01:40:53.431Z,0.702
2023-04-19T01:42:54.863Z,0.982
2023-04-19T01:46:57.983Z,0
2023-04-19T01:53:02.340Z,0
2023-04-19T01:57:05.037Z,0
2023-04-19T01:59:06.198Z,0
2023-04-19T02:03:09.189Z,0
2023-04-19T02:09:13.408Z,0
2023-04-19T02:13:16.136Z,0
2023-04-19T02:15:18.039Z,0
2023-04-19T02:19:20.857Z,0
2023-04-19T02:23:23.705Z,0
2023-04-19T02:25:25.659Z,0
2023-04-19T02:29:28.046Z,0
2023-04-19T02:33:30.967Z,0
2023-04-19T02:35:32.410Z,0
2023-04-19T02:39:35.554Z,0
2023-04-19T02:41:36.590Z,0
2023-04-19T02:43:37.872Z,0
2023-04-19T02:45:39.629Z,0
2023-04-19T02:51:44.342Z,1.825
2023-04-19T02:57:48.164Z,2.106
2023-04-19T03:02:34.857Z,1.404
2023-04-19T03:06:38.068Z,0
2023-04-19T03:10:41.891Z,0
2023-04-19T03:12:43.561Z,0
2023-04-19T03:16:46.805Z,0
2023-04-19T03:18:49.534Z,0
2023-04-19T03:20:49.733Z,0
2023-04-19T03:22:51.280Z,0
2023-04-19T03:26:54.545Z,0
2023-04-19T03:28:55.817Z,0
2023-04-19T03:35:00.811Z,0
2023-04-19T03:39:03.137Z,0
2023-04-19T03:45:07.292Z,0
2023-04-19T03:49:10.242Z,0.28
2023-04-19T03:55:14.398Z,1.825
2023-04-19T03:59:17.137Z,0
2023-04-19T04:01:18.716Z,0
2023-04-19T04:03:20.752Z,0
2023-04-19T04:05:22.625Z,0
2023-04-19T04:11:27.162Z,0
2023-04-19T04:13:28.439Z,0
2023-04-19T04:17:31.305Z,0
2023-04-19T04:21:33.887Z,0
2023-04-19T04:27:38.545Z,0
2023-04-19T04:31:42.040Z,0.28
2023-04-19T04:33:43.900Z,0
2023-04-19T04:37:47.021Z,0
2023-04-19T04:41:50.561Z,0
2023-04-19T04:44:04.788Z,0
2023-04-19T04:47:54.913Z,0
2023-04-19T04:53:58.937Z,0
2023-04-19T04:58:01.276Z,0
2023-04-19T05:00:02.678Z,0
2023-04-19T05:04:06.248Z,0
2023-04-19T05:10:10.875Z,0
2023-04-19T05:14:14.594Z,0
2023-04-19T05:16:16.094Z,0
2023-04-19T05:20:19.167Z,0
2023-04-19T05:24:21.774Z,0
2023-04-19T05:26:23.039Z,0
2023-04-19T05:30:25.983Z,0
2023-04-19T05:36:30.225Z,0
2023-04-19T05:40:33.731Z,0
2023-04-19T05:42:34.924Z,0
2023-04-19T05:46:37.490Z,0
2023-04-19T05:52:41.008Z,0
2023-04-19T05:56:43.958Z,0
2023-04-19T05:58:45.771Z,0.982
2023-04-19T06:02:49.378Z,0
2023-04-19T06:06:51.472Z,0
2023-04-19T06:08:54.721Z,0
2023-04-19T06:12:55.994Z,0
2023-04-19T06:18:59.957Z,0
2023-04-19T06:23:03.217Z,0
2023-04-19T06:25:04.563Z,0
2023-04-19T06:29:07.742Z,0
2023-04-19T06:35:12.147Z,0
2023-04-19T06:41:16.289Z,0
2023-04-19T06:45:19.232Z,0
2023-04-19T06:51:24.157Z,0
2023-04-19T06:55:27.436Z,0
2023-04-19T06:59:29.397Z,0
2023-04-19T07:01:30.702Z,0.14
2023-04-19T07:05:34.237Z,1.825
2023-04-19T07:07:35.541Z,0.14
2023-04-19T07:09:37.343Z,0.14
2023-04-19T07:11:38.272Z,0
2023-04-19T07:17:43.203Z,2.667
2023-04-19T07:23:47.080Z,1.825
2023-04-19T07:27:49.651Z,7.862
2023-04-19T07:29:50.649Z,5.475
2023-04-19T07:33:53.382Z,4.352
2023-04-19T07:37:56.213Z,3.79
2023-04-19T07:39:58.010Z,0.14
2023-04-19T07:44:00.190Z,4.352
2023-04-19T07:50:04.672Z,0.982
2023-04-19T07:54:07.896Z,0.842
2023-04-19T07:56:10.994Z,2.246
2023-04-19T08:00:12.229Z,2.948
2023-04-19T08:06:17.028Z,5.756
2023-04-19T08:10:22.170Z,2.527
2023-04-19T08:12:33.300Z,3.51
2023-04-19T08:20:27.201Z,0.421
2023-04-19T08:22:28.606Z,2.948
2023-04-19T08:26:32.074Z,7.3
2023-04-19T08:32:36.522Z,0.561
2023-04-19T08:36:43.518Z,4.071
2023-04-19T08:38:40.398Z,4.914
2023-04-19T08:40:41.312Z,4.492
2023-04-19T08:42:42.724Z,3.229
2023-04-19T08:48:47.675Z,3.65
2023-04-19T08:54:52.362Z,2.667
2023-04-19T08:59:04.404Z,0
2023-04-19T09:05:00.235Z,0.421
2023-04-19T09:09:02.725Z,0.982
2023-04-19T09:15:06.622Z,3.79
2023-04-19T09:19:19.912Z,0.561
2023-04-19T09:21:10.555Z,0.982
2023-04-19T09:25:37.593Z,2.527
2023-04-19T09:31:35.698Z,0.28
2023-04-19T09:41:26.446Z,4.773
2023-04-19T09:44:42.243Z,3.51
2023-04-19T09:46:12.509Z,3.51
2023-04-19T09:48:13.950Z,2.106
2023-04-19T09:52:16.448Z,0.982
2023-04-19T09:56:19.900Z,2.948
2023-04-19T09:58:21.682Z,1.263
2023-04-19T10:02:24.638Z,2.527
2023-04-19T10:08:28.631Z,3.931
2023-04-19T10:14:32.141Z,1.544
2023-04-19T10:18:34.977Z,2.527
2023-04-19T10:24:40.115Z,3.369
2023-04-19T10:30:44.644Z,2.527
2023-04-19T10:34:47.742Z,4.773
2023-04-19T10:38:50.211Z,7.3
2023-04-19T10:40:52.050Z,5.896
2023-04-19T10:44:54.550Z,4.633
2023-04-19T10:50:58.806Z,4.352
2023-04-19T10:55:01.035Z,2.527
2023-04-19T10:57:01.974Z,3.088
2023-04-19T11:01:04.960Z,4.212
2023-04-19T11:07:09.325Z,7.02
2023-04-19T11:11:12.913Z,9.126
2023-04-19T11:13:13.773Z,6.037
2023-04-19T11:17:17.432Z,3.51
2023-04-19T11:21:20.607Z,0.982
2023-04-19T11:23:22.008Z,4.773
2023-04-19T11:27:25.651Z,5.475
2023-04-19T11:33:30.198Z,2.386
2023-04-19T11:37:35.181Z,3.79
2023-04-19T11:39:35.493Z,2.386
2023-04-19T11:43:37.361Z,5.896
2023-04-19T11:49:42.217Z,11.653
2023-04-19T11:53:44.196Z,2.386
2023-04-19T11:55:45.772Z,6.879
2023-04-19T11:59:48.639Z,3.51
2023-04-19T12:03:52.155Z,4.352
2023-04-19T12:05:52.801Z,8.002
2023-04-19T12:09:54.755Z,11.232
2023-04-19T12:13:57.209Z,9.547
2023-04-19T12:15:58.974Z,11.512
2023-04-19T12:20:02.057Z,9.126
2023-04-19T12:22:02.892Z,7.581
2023-04-19T12:24:04.315Z,10.108
2023-04-19T12:26:05.382Z,12.074
2023-04-19T12:32:09.018Z,5.335
2023-04-19T12:38:14.301Z,2.948
2023-04-19T12:42:16.580Z,4.914
2023-04-19T12:48:21.012Z,6.879
2023-04-19T12:52:23.312Z,3.65
2023-04-19T12:54:24.871Z,5.756
2023-04-19T12:58:27.930Z,3.931
2023-04-19T13:02:31.124Z,6.879
2023-04-19T13:04:32.720Z,4.492
2023-04-19T13:08:44.539Z,5.194
2023-04-19T13:14:38.794Z,8.564
2023-04-19T13:18:41.543Z,2.948
2023-04-19T13:20:43.342Z,7.3
2023-04-19T13:24:46.739Z,5.616
2023-04-19T13:30:51.099Z,4.773
2023-04-19T13:34:53.303Z,3.51
2023-04-19T13:36:54.657Z,14.18
2023-04-19T13:40:57.276Z,4.633
2023-04-19T13:45:00.175Z,2.527
2023-04-19T13:47:01.269Z,1.404
2023-04-19T13:51:03.448Z,6.037
2023-04-19T13:57:07.470Z,3.79
2023-04-19T14:01:09.721Z,4.071
2023-04-19T14:03:11.301Z,8.704
2023-04-19T14:07:13.399Z,6.458
2023-04-19T14:13:16.884Z,4.773
2023-04-19T14:15:17.885Z,5.054
2023-04-19T14:19:20.365Z,2.106
2023-04-19T14:23:23.278Z,2.246
2023-04-19T14:29:28.642Z,5.054
2023-04-19T14:33:33.981Z,6.598
2023-04-19T14:35:32.352Z,5.616
2023-04-19T14:39:35.003Z,3.931
2023-04-19T14:43:37.470Z,11.232
2023-04-19T14:45:39.078Z,6.739
2023-04-19T14:49:42.168Z,5.616
2023-04-19T14:55:47.045Z,6.318
2023-04-19T15:01:59.274Z,10.81
2023-04-19T15:05:54.500Z,7.3
2023-04-19T15:11:58.115Z,7.441
2023-04-19T15:16:03.188Z,2.106
2023-04-19T15:18:02.693Z,6.318
2023-04-19T15:22:04.734Z,11.934
2023-04-19T15:26:06.798Z,2.527
2023-04-19T15:28:08.559Z,8.424
2023-04-19T15:32:10.650Z,2.386
2023-04-19T15:38:13.972Z,4.492
2023-04-19T15:42:16.233Z,5.335
2023-04-19T15:44:17.186Z,5.054
2023-04-19T15:48:19.445Z,3.931
2023-04-19T15:54:23.196Z,6.598
2023-04-19T16:00:27.514Z,3.65
2023-04-19T16:04:30.348Z,1.825
2023-04-19T16:10:34.322Z,6.739
2023-04-19T16:14:36.409Z,9.266
2023-04-19T16:16:37.701Z,3.79
2023-04-19T16:20:40.439Z,7.441
2023-04-19T16:24:43.633Z,7.16
2023-04-19T16:26:44.582Z,7.441
2023-04-19T16:31:31.911Z,11.372
2023-04-19T16:37:35.035Z,9.406
2023-04-19T16:41:38.553Z,9.687
2023-04-19T16:47:41.800Z,2.386
2023-04-19T16:51:44.656Z,4.492
2023-04-19T16:53:46.143Z,5.054
2023-04-19T16:57:49.415Z,4.773
2023-04-19T17:01:52.025Z,6.739
2023-04-19T17:03:53.022Z,3.51
2023-04-19T17:07:56.803Z,2.527
2023-04-19T17:13:59.021Z,4.352
2023-04-19T17:18:00.994Z,2.948
2023-04-19T17:20:01.925Z,1.404
2023-04-19T17:24:04.717Z,5.475
2023-04-19T17:30:09.285Z,3.369
2023-04-19T17:34:13.054Z,5.616
2023-04-19T17:36:14.941Z,4.212
2023-04-19T17:40:18.074Z,4.492
2023-04-19T17:44:23.226Z,3.931
2023-04-19T17:46:25.090Z,1.404
2023-04-19T17:50:29.152Z,1.123
2023-04-19T17:52:31.083Z,2.948
2023-04-19T17:56:33.486Z,0.702
2023-04-19T18:00:36.825Z,4.773
2023-04-19T18:02:38.536Z,2.948
2023-04-19T18:06:41.265Z,0
